createdAt,value
2023-04-18T00:00:18.993Z,102620.41
2023-04-18T00:05:22.301Z,102621.81
2023-04-18T00:10:24.905Z,102618.84
2023-04-18T00:15:29.321Z,102609.00
2023-04-18T00:20:33.011Z,102610.66
2023-04-18T00:25:35.895Z,102625.13
2023-04-18T00:30:38.570Z,102620.22
2023-04-18T00:35:42.051Z,102628.50
2023-04-18T00:40:44.646Z,102627.16
2023-04-18T00:45:47.280Z,102621.47
2023-04-18T00:50:50.243Z,102618.50
2023-04-18T00:55:53.347Z,102630.44
2023-04-18T01:00:56.041Z,102626.06
2023-04-18T01:05:59.037Z,102625.31
2023-04-18T01:11:01.776Z,102624.50
2023-04-18T01:16:04.787Z,102625.06
2023-04-18T01:21:07.679Z,102625.06
2023-04-18T01:26:10.732Z,102626.19
2023-04-18T01:31:13.378Z,102627.84
2023-04-18T01:36:16.566Z,102636.38
2023-04-18T01:41:19.146Z,102639.38
2023-04-18T01:46:21.832Z,102645.19
2023-04-18T01:51:24.480Z,102631.94
2023-04-18T01:56:30.067Z,102642.69
2023-04-18T02:01:34.624Z,102643.25
2023-04-18T02:06:37.091Z,102652.06
2023-04-18T02:11:39.615Z,102647.09
2023-04-18T02:16:42.200Z,102647.94
2023-04-18T02:21:45.025Z,102644.34
2023-04-18T02:26:47.652Z,102655.34
2023-04-18T02:31:50.310Z,102654.50
2023-04-18T02:36:52.970Z,102657.81
2023-04-18T02:41:55.517Z,102660.28
2023-04-18T02:47:00.400Z,102663.88
2023-04-18T02:52:03.544Z,102666.88
2023-04-18T02:57:06.603Z,102665.78
2023-04-18T03:02:29.064Z,102671.81
2023-04-18T03:07:38.271Z,102669.34
2023-04-18T03:12:40.955Z,102662.25
2023-04-18T03:17:45.340Z,102673.00
2023-04-18T03:22:49.518Z,102671.88
2023-04-18T03:27:58.407Z,102674.34
2023-04-18T03:33:03.114Z,102677.13
2023-04-18T03:38:06.285Z,102677.66
2023-04-18T03:43:12.729Z,102674.41
2023-04-18T03:48:15.503Z,102673.28
2023-04-18T03:53:20.643Z,102675.22
2023-04-18T03:58:24.033Z,102680.66
2023-04-18T04:03:28.822Z,102682.78
2023-04-18T04:08:31.661Z,102674.38
2023-04-18T04:13:34.478Z,102669.50
2023-04-18T04:18:37.708Z,102676.50
2023-04-18T04:23:42.532Z,102671.38
2023-04-18T04:28:51.865Z,102672.56
2023-04-18T04:33:58.597Z,102681.31
2023-04-18T04:39:04.354Z,102684.25
2023-04-18T04:44:17.800Z,102688.63
2023-04-18T04:49:21.177Z,102680.44
2023-04-18T04:54:24.104Z,102688.00
2023-04-18T04:59:27.104Z,102675.66
2023-04-18T05:04:30.153Z,102673.13
2023-04-18T05:09:32.917Z,102676.69
2023-04-18T05:14:35.669Z,102682.38
2023-04-18T05:19:38.252Z,102678.19
2023-04-18T05:24:41.420Z,102671.06
2023-04-18T05:29:44.053Z,102674.41
2023-04-18T05:34:47.032Z,102669.69
2023-04-18T05:39:49.985Z,102677.44
2023-04-18T05:55:42.707Z,102674.81
2023-04-18T06:00:49.540Z,102674.50
2023-04-18T06:05:52.374Z,102675.09
2023-04-18T06:10:55.032Z,102672.41
2023-04-18T06:15:57.758Z,102664.38
2023-04-18T06:21:00.826Z,102667.53
2023-04-18T06:26:04.114Z,102664.81
2023-04-18T06:31:06.960Z,102662.50
2023-04-18T06:36:10.730Z,102662.31
2023-04-18T06:41:15.674Z,102657.16
2023-04-18T06:46:18.803Z,102651.50
2023-04-18T06:51:21.377Z,102649.03
2023-04-18T06:56:24.088Z,102644.47
2023-04-18T07:01:26.800Z,102636.50
2023-04-18T07:06:58.100Z,102641.94
2023-04-18T07:12:03.731Z,102638.19
2023-04-18T07:17:06.459Z,102636.06
2023-04-18T07:22:09.332Z,102635.13
2023-04-18T07:27:12.111Z,102626.00
2023-04-18T07:32:14.921Z,102626.22
2023-04-18T07:37:19.107Z,102611.66
2023-04-18T07:42:23.418Z,102606.47
2023-04-18T07:47:30.457Z,102606.78
2023-04-18T07:52:34.437Z,102601.41
2023-04-18T07:57:37.384Z,102591.72
2023-04-18T08:02:40.224Z,102584.34
2023-04-18T08:07:43.378Z,102587.09
2023-04-18T08:12:46.475Z,102580.22
2023-04-18T08:17:49.290Z,102562.78
2023-04-18T08:23:06.194Z,102566.47
2023-04-18T08:28:11.408Z,102553.31
2023-04-18T08:33:14.440Z,102551.41
2023-04-18T08:38:18.352Z,102527.66
2023-04-18T08:43:21.222Z,102532.31
2023-04-18T08:48:24.148Z,102518.94
2023-04-18T08:53:27.522Z,102509.97
2023-04-18T08:58:32.595Z,102499.06
2023-04-18T09:03:40.068Z,102509.84
2023-04-18T09:08:57.743Z,102507.81
2023-04-18T09:14:00.468Z,102502.59
2023-04-18T09:24:47.176Z,102494.78
2023-04-18T09:29:57.321Z,102499.56
2023-04-18T09:35:14.130Z,102489.88
2023-04-18T09:40:19.169Z,102483.22
2023-04-18T09:45:24.370Z,102497.47
2023-04-18T09:50:27.554Z,102486.44
2023-04-18T09:55:32.584Z,102473.88
2023-04-18T10:00:41.652Z,102469.13
2023-04-18T10:05:52.074Z,102470.97
2023-04-18T10:10:57.248Z,102466.91
2023-04-18T10:16:00.608Z,102464.94
2023-04-18T10:21:04.523Z,102463.19
2023-04-18T10:26:08.376Z,102458.28
2023-04-18T10:31:11.879Z,102458.72
2023-04-18T10:36:17.241Z,102447.03
2023-04-18T10:41:45.583Z,102446.31
2023-04-18T10:52:08.687Z,102438.19
2023-04-18T10:57:13.268Z,102426.75
2023-04-18T11:02:33.480Z,102426.91
2023-04-18T11:12:49.624Z,102414.78
2023-04-18T11:23:20.064Z,102398.06
2023-04-18T11:28:25.092Z,102398.84
2023-04-18T11:33:29.727Z,102390.34
2023-04-18T11:38:33.315Z,102387.84
2023-04-18T11:43:49.041Z,102367.56
2023-04-18T11:48:55.366Z,102377.88
2023-04-18T11:54:00.768Z,102361.81
2023-04-18T11:59:16.558Z,102352.97
2023-04-18T12:11:07.059Z,102346.59
2023-04-18T12:16:19.409Z,102347.56
2023-04-18T12:21:22.429Z,102347.50
2023-04-18T12:26:25.093Z,102345.44
2023-04-18T12:31:30.800Z,102350.97
2023-04-18T12:42:33.743Z,102337.19
2023-04-18T12:47:37.774Z,102337.06
2023-04-18T12:52:41.164Z,102333.56
2023-04-18T12:57:56.628Z,102325.38
2023-04-18T13:04:13.525Z,102314.56
2023-04-18T13:09:22.217Z,102309.22
2023-04-18T13:15:05.968Z,102300.72
2023-04-18T13:20:29.179Z,102307.22
2023-04-18T13:25:39.380Z,102298.78
2023-04-18T13:30:42.217Z,102295.75
2023-04-18T13:35:49.152Z,102286.75
2023-04-18T13:41:12.205Z,102287.84
2023-04-18T13:46:15.995Z,102284.63
2023-04-18T13:51:18.687Z,102281.09
2023-04-18T13:56:21.337Z,102271.66
2023-04-18T14:01:23.930Z,102274.03
2023-04-18T14:06:28.306Z,102269.94
2023-04-18T14:11:30.913Z,102256.66
2023-04-18T14:16:33.995Z,102261.34
2023-04-18T14:21:36.682Z,102252.00
2023-04-18T14:26:39.296Z,102258.03
2023-04-18T14:31:42.024Z,102252.97
2023-04-18T14:36:44.768Z,102248.72
2023-04-18T14:41:47.290Z,102236.13
2023-04-18T14:46:49.862Z,102237.97
2023-04-18T14:51:52.649Z,102231.25
2023-04-18T14:56:56.558Z,102231.03
2023-04-18T15:01:59.216Z,102228.06
2023-04-18T15:07:01.929Z,102223.22
2023-04-18T15:12:07.763Z,102223.44
2023-04-18T15:17:10.545Z,102209.59
2023-04-18T15:22:13.277Z,102224.09
2023-04-18T15:27:15.912Z,102209.34
2023-04-18T15:32:18.665Z,102211.66
2023-04-18T15:37:21.904Z,102204.53
2023-04-18T15:42:24.466Z,102188.94
2023-04-18T15:47:27.608Z,102201.22
2023-04-18T15:52:30.319Z,102211.88
2023-04-18T15:57:32.980Z,102216.25
2023-04-18T16:02:35.745Z,102209.16
2023-04-18T16:07:40.364Z,102213.25
2023-04-18T16:12:43.017Z,102209.69
2023-04-18T16:17:46.239Z,102214.59
2023-04-18T16:22:49.693Z,102213.81
2023-04-18T16:27:52.377Z,102209.25
2023-04-18T16:32:56.088Z,102206.31
2023-04-18T16:37:58.731Z,102204.56
2023-04-18T16:43:02.633Z,102202.91
2023-04-18T16:48:05.882Z,102207.41
2023-04-18T16:53:08.539Z,102199.94
2023-04-18T16:58:11.426Z,102210.84
2023-04-18T17:03:14.412Z,102210.13
2023-04-18T17:08:19.178Z,102201.75
2023-04-18T17:13:26.886Z,102205.22
2023-04-18T17:18:29.554Z,102214.63
2023-04-18T17:23:33.129Z,102216.66
2023-04-18T17:28:36.596Z,102218.66
2023-04-18T17:33:39.141Z,102217.38
2023-04-18T17:38:43.969Z,102218.59
2023-04-18T17:43:47.439Z,102217.16
2023-04-18T17:48:50.190Z,102212.78
2023-04-18T17:53:52.918Z,102222.06
2023-04-18T17:58:56.785Z,102226.69
2023-04-18T18:03:59.632Z,102228.72
2023-04-18T18:09:02.768Z,102231.69
2023-04-18T18:14:05.534Z,102241.41
2023-04-18T18:19:08.259Z,102246.91
2023-04-18T18:24:10.964Z,102247.91
2023-04-18T18:29:13.772Z,102246.50
2023-04-18T18:34:17.088Z,102251.09
2023-04-18T18:39:20.137Z,102242.78
2023-04-18T18:44:23.424Z,102251.16
2023-04-18T18:49:26.816Z,102243.66
2023-04-18T18:54:29.719Z,102237.13
2023-04-18T18:59:32.332Z,102250.75
2023-04-18T19:04:35.056Z,102247.34
2023-04-18T19:09:37.760Z,102238.81
2023-04-18T19:14:42.341Z,102248.03
2023-04-18T19:19:45.107Z,102237.22
2023-04-18T19:24:47.736Z,102243.59
2023-04-18T19:29:50.661Z,102226.28
2023-04-18T19:34:53.313Z,102232.50
2023-04-18T19:39:56.233Z,102228.75
2023-04-18T19:45:00.404Z,102226.31
2023-04-18T19:50:03.740Z,102225.13
2023-04-18T19:55:07.205Z,102228.91
2023-04-18T20:00:11.772Z,102230.34
2023-04-18T20:05:27.399Z,102223.53
2023-04-18T20:10:30.821Z,102215.00
2023-04-18T20:16:14.190Z,102207.81
2023-04-18T20:21:56.618Z,102214.66
2023-04-18T20:27:00.342Z,102205.31
2023-04-18T20:33:02.412Z,102212.16
2023-04-18T20:38:25.945Z,102215.78
2023-04-18T20:43:29.922Z,102207.56
2023-04-18T20:49:31.982Z,102209.34
2023-04-18T20:54:54.781Z,102202.19
2023-04-18T20:59:58.771Z,102196.63
2023-04-18T21:05:01.391Z,102195.56
2023-04-18T21:10:05.693Z,102193.59
2023-04-18T21:15:18.909Z,102189.81
2023-04-18T21:20:21.651Z,102182.09
2023-04-18T21:25:24.369Z,102176.88
2023-04-18T21:30:27.110Z,102181.25
2023-04-18T21:35:30.125Z,102181.09
2023-04-18T21:40:33.511Z,102183.00
2023-04-18T21:45:36.272Z,102172.53
2023-04-18T21:50:38.957Z,102165.94
2023-04-18T21:55:41.730Z,102168.19
2023-04-18T22:00:44.324Z,102159.81
2023-04-18T22:05:47.385Z,102155.09
2023-04-18T22:10:50.567Z,102157.50
2023-04-18T22:15:53.257Z,102150.81
2023-04-18T22:20:55.872Z,102152.84
2023-04-18T22:25:58.681Z,102139.22
2023-04-18T22:31:01.570Z,102132.81
2023-04-18T22:36:04.538Z,102130.91
2023-04-18T22:41:07.997Z,102126.94
2023-04-18T22:46:10.902Z,102130.41
2023-04-18T22:51:14.903Z,102123.09
2023-04-18T22:56:17.695Z,102122.81
2023-04-18T23:01:20.336Z,102118.53
2023-04-18T23:06:23.192Z,102117.63
2023-04-18T23:11:26.388Z,102101.44
2023-04-18T23:16:29.063Z,102095.63
2023-04-18T23:21:32.332Z,102096.97
2023-04-18T23:26:34.801Z,102084.97
2023-04-18T23:31:37.372Z,102083.41
2023-04-18T23:36:40.700Z,102075.44
2023-04-18T23:41:43.309Z,102075.31
2023-04-18T23:46:46.080Z,102066.53
2023-04-18T23:51:48.614Z,102060.19
2023-04-18T23:56:51.231Z,102048.97
